createdAt,value
2018-09-06T00:02:45.011Z,10.83
2018-09-06T00:07:37.611Z,10.77
2018-09-06T00:12:30.202Z,13.33
2018-09-06T00:17:22.746Z,16.50
2018-09-06T00:22:16.481Z,12.53
2018-09-06T00:27:09.087Z,14.80
2018-09-06T00:32:01.723Z,15.70
2018-09-06T00:36:54.272Z,13.27
2018-09-06T00:41:46.916Z,12.57
2018-09-06T00:46:39.482Z,13.47
2018-09-06T00:51:32.134Z,11.37
2018-09-06T00:56:24.701Z,16.07
2018-09-06T01:01:17.328Z,14.10
2018-09-06T01:06:09.934Z,12.43
2018-09-06T01:11:02.630Z,16.97
2018-09-06T01:15:55.443Z,14.67
2018-09-06T01:20:47.991Z,17.07
2018-09-06T01:25:49.766Z,11.23
2018-09-06T01:30:42.527Z,14.90
2018-09-06T01:35:35.095Z,14.97
2018-09-06T01:40:27.748Z,13.57
2018-09-06T01:45:20.420Z,13.00
2018-09-06T01:50:12.996Z,12.43
2018-09-06T01:55:05.578Z,11.63
2018-09-06T01:59:58.131Z,11.30
2018-09-06T02:04:50.772Z,11.77
2018-09-06T02:09:43.456Z,12.97
2018-09-06T02:14:36.051Z,14.80
2018-09-06T02:19:28.606Z,10.73
2018-09-06T02:24:21.221Z,11.03
2018-09-06T02:29:13.924Z,11.73
2018-09-06T02:34:07.079Z,12.27
2018-09-06T02:38:59.752Z,13.10
2018-09-06T02:43:52.346Z,15.63
2018-09-06T02:48:45.050Z,13.73
2018-09-06T02:53:37.642Z,12.93
2018-09-06T02:58:30.186Z,17.47
2018-09-06T03:03:22.826Z,16.17
2018-09-06T03:08:15.562Z,13.10
2018-09-06T03:13:08.111Z,13.33
2018-09-06T03:18:00.737Z,15.83
2018-09-06T03:22:53.379Z,14.43
2018-09-06T03:27:46.111Z,14.60
2018-09-06T03:32:38.717Z,16.77
2018-09-06T03:37:31.329Z,17.40
2018-09-06T03:42:23.914Z,18.80
2018-09-06T03:47:16.884Z,15.50
2018-09-06T03:52:09.780Z,12.97
2018-09-06T03:57:02.527Z,19.90
2018-09-06T04:01:55.045Z,18.13
2018-09-06T04:06:47.736Z,14.37
2018-09-06T04:11:40.404Z,17.87
2018-09-06T04:16:33.691Z,16.07
2018-09-06T04:21:26.256Z,14.77
2018-09-06T04:26:19.052Z,18.60
2018-09-06T04:31:11.656Z,16.40
2018-09-06T04:36:04.410Z,15.33
2018-09-06T04:40:57.351Z,22.50
2018-09-06T04:45:49.942Z,18.73
2018-09-06T04:50:42.601Z,29.43
2018-09-06T04:55:35.220Z,19.00
2018-09-06T05:00:27.943Z,18.23
2018-09-06T05:05:20.619Z,23.03
2018-09-06T05:10:13.235Z,19.27
2018-09-06T05:15:05.904Z,22.80
2018-09-06T05:19:58.574Z,20.03
2018-09-06T05:24:51.223Z,25.03
2018-09-06T05:29:43.839Z,20.80
2018-09-06T05:34:36.431Z,22.77
2018-09-06T05:39:29.129Z,24.07
2018-09-06T05:44:21.863Z,23.33
2018-09-06T05:49:14.454Z,22.33
2018-09-06T05:54:07.440Z,21.33
2018-09-06T05:59:00.137Z,19.80
2018-09-06T06:03:52.863Z,22.00
2018-09-06T06:08:47.191Z,21.43
2018-09-06T06:13:39.864Z,26.83
2018-09-06T06:18:32.435Z,26.93
2018-09-06T06:23:25.057Z,21.47
2018-09-06T06:28:17.644Z,25.20
2018-09-06T06:33:10.408Z,23.43
2018-09-06T06:38:03.111Z,24.07
2018-09-06T06:42:55.759Z,22.43
2018-09-06T06:47:48.499Z,20.43
2018-09-06T06:52:41.368Z,27.10
2018-09-06T06:57:34.113Z,20.80
2018-09-06T07:02:26.881Z,19.90
2018-09-06T07:07:19.467Z,26.90
2018-09-06T07:12:12.075Z,23.77
2018-09-06T07:17:04.659Z,21.93
2018-09-06T07:21:57.426Z,20.90
2018-09-06T07:26:50.020Z,27.33
2018-09-06T07:31:42.634Z,28.57
2018-09-06T07:36:35.248Z,22.07
2018-09-06T07:41:28.060Z,30.03
2018-09-06T07:46:20.614Z,19.37
2018-09-06T07:51:13.192Z,23.23
2018-09-06T07:56:05.939Z,20.30
2018-09-06T08:00:58.655Z,23.53
2018-09-06T08:05:51.255Z,18.97
2018-09-06T08:10:43.825Z,19.93
2018-09-06T08:15:36.417Z,24.20
2018-09-06T08:20:29.088Z,17.23
2018-09-06T08:25:21.739Z,22.27
2018-09-06T08:30:14.323Z,25.23
2018-09-06T08:35:07.095Z,21.87
2018-09-06T08:39:59.840Z,30.03
2018-09-06T08:44:52.546Z,15.80
2018-09-06T08:49:45.223Z,16.60
2018-09-06T08:54:37.795Z,19.10
2018-09-06T08:59:30.511Z,15.87
2018-09-06T09:04:23.275Z,19.57
2018-09-06T09:09:15.874Z,17.00
2018-09-06T09:14:11.267Z,17.47
2018-09-06T09:19:03.890Z,19.00
2018-09-06T09:23:56.479Z,16.53
2018-09-06T09:28:49.102Z,19.43
2018-09-06T09:33:41.939Z,18.00
2018-09-06T09:38:34.558Z,18.40
2018-09-06T09:43:27.904Z,13.43
2018-09-06T09:48:20.632Z,12.23
2018-09-06T09:53:13.330Z,16.33
2018-09-06T09:58:05.941Z,14.10
2018-09-06T10:03:04.837Z,15.07
2018-09-06T10:07:57.894Z,12.53
2018-09-06T10:12:50.638Z,12.17
2018-09-06T10:17:43.278Z,15.83
2018-09-06T10:22:35.940Z,9.33
2018-09-06T10:27:28.559Z,9.77
2018-09-06T10:32:21.127Z,14.80
2018-09-06T10:37:13.800Z,11.80
2018-09-06T10:42:06.402Z,11.83
2018-09-06T10:46:58.985Z,10.87
2018-09-06T10:51:51.542Z,11.97
2018-09-06T10:56:44.302Z,13.53
2018-09-06T11:01:36.906Z,12.47
2018-09-06T11:06:29.523Z,13.77
2018-09-06T11:11:22.168Z,12.83
2018-09-06T11:16:15.241Z,11.53
2018-09-06T11:21:07.976Z,15.70
2018-09-06T11:26:00.573Z,16.73
2018-09-06T11:30:53.119Z,16.23
2018-09-06T11:35:45.668Z,14.13
2018-09-06T11:40:38.404Z,17.80
2018-09-06T11:45:31.019Z,11.60
2018-09-06T11:50:23.701Z,12.93
2018-09-06T11:55:16.474Z,11.63
2018-09-06T12:00:09.153Z,10.23
2018-09-06T12:05:01.826Z,11.70
2018-09-06T12:09:54.510Z,11.37
2018-09-06T12:14:47.179Z,12.03
2018-09-06T12:19:39.876Z,13.03
2018-09-06T12:24:32.513Z,16.20
2018-09-06T12:29:26.028Z,14.80
2018-09-06T12:34:18.920Z,12.30
2018-09-06T12:39:11.531Z,11.07
2018-09-06T12:44:04.160Z,11.43
2018-09-06T12:48:56.927Z,13.43
2018-09-06T12:53:49.595Z,14.53
2018-09-06T12:58:42.264Z,13.83
2018-09-06T13:03:34.793Z,13.17
2018-09-06T13:08:27.404Z,12.43
2018-09-06T13:13:19.966Z,9.63
2018-09-06T13:18:12.539Z,13.43
2018-09-06T13:23:05.234Z,11.47
2018-09-06T13:27:57.815Z,9.47
2018-09-06T13:32:50.707Z,10.00
2018-09-06T13:37:43.334Z,12.03
2018-09-06T13:42:35.950Z,9.40
2018-09-06T13:47:28.575Z,9.87
2018-09-06T13:52:21.168Z,8.77
2018-09-06T13:57:13.781Z,8.93
2018-09-06T14:02:06.367Z,10.80
2018-09-06T14:06:58.930Z,9.70
2018-09-06T14:11:51.518Z,10.57
2018-09-06T14:16:44.253Z,12.93
2018-09-06T14:21:36.809Z,13.50
2018-09-06T14:26:29.504Z,10.67
2018-09-06T14:31:22.097Z,14.70
2018-09-06T14:36:14.963Z,12.30
2018-09-06T14:41:07.572Z,10.00
2018-09-06T14:46:00.187Z,9.60
2018-09-06T14:50:52.818Z,14.33
2018-09-06T14:55:45.374Z,10.63
2018-09-06T15:00:38.095Z,15.50
2018-09-06T15:05:30.794Z,13.53
2018-09-06T15:10:23.346Z,9.73
2018-09-06T15:15:15.955Z,12.03
2018-09-06T15:20:08.658Z,10.67
2018-09-06T15:25:01.323Z,13.33
2018-09-06T15:29:53.994Z,9.23
2018-09-06T15:34:46.803Z,11.33
2018-09-06T15:39:39.394Z,10.60
2018-09-06T15:44:32.033Z,13.90
2018-09-06T15:49:24.697Z,9.83
2018-09-06T15:54:17.466Z,17.80
2018-09-06T15:59:10.064Z,9.27
2018-09-06T16:04:02.688Z,12.67
2018-09-06T16:08:55.307Z,10.93
2018-09-06T16:13:48.081Z,11.97
2018-09-06T16:18:41.030Z,13.27
2018-09-06T16:23:33.642Z,11.33
2018-09-06T16:28:26.230Z,17.70
2018-09-06T16:33:19.222Z,12.83
2018-09-06T16:38:11.808Z,19.63
2018-09-06T16:43:04.722Z,12.67
2018-09-06T16:47:57.433Z,11.40
2018-09-06T16:52:50.267Z,12.50
2018-09-06T16:57:42.947Z,10.60
2018-09-06T17:02:35.637Z,15.03
2018-09-06T17:07:28.219Z,12.37
2018-09-06T17:12:20.859Z,15.47
2018-09-06T17:17:13.544Z,15.97
2018-09-06T17:22:10.558Z,11.10
2018-09-06T17:27:03.233Z,13.17
2018-09-06T17:31:56.142Z,16.53
2018-09-06T17:36:48.797Z,10.83
2018-09-06T17:41:41.386Z,10.63
2018-09-06T17:46:34.304Z,12.73
2018-09-06T17:51:26.969Z,16.10
2018-09-06T17:56:19.748Z,12.33
2018-09-06T18:01:18.444Z,10.83
2018-09-06T18:06:11.632Z,15.03
2018-09-06T18:11:05.048Z,15.17
2018-09-06T18:15:57.668Z,11.77
2018-09-06T18:20:50.269Z,12.73
2018-09-06T18:25:42.976Z,14.97
2018-09-06T18:30:35.574Z,13.73
2018-09-06T18:35:28.204Z,12.97
2018-09-06T18:40:20.704Z,11.77
2018-09-06T18:45:13.326Z,13.87
2018-09-06T18:50:05.896Z,15.03
2018-09-06T18:54:58.492Z,10.83
2018-09-06T18:59:51.017Z,11.63
2018-09-06T19:04:43.639Z,10.50
2018-09-06T19:09:36.171Z,10.43
2018-09-06T19:14:28.758Z,14.17
2018-09-06T19:19:21.326Z,12.93
2018-09-06T19:24:13.896Z,10.80
2018-09-06T19:29:06.440Z,15.00
2018-09-06T19:33:59.259Z,12.63
2018-09-06T19:38:51.838Z,13.13
2018-09-06T19:43:44.585Z,12.93
2018-09-06T19:48:37.184Z,12.30
2018-09-06T19:53:29.816Z,11.40
2018-09-06T19:58:22.477Z,11.20
2018-09-06T20:03:15.356Z,11.33
2018-09-06T20:08:08.273Z,15.63
2018-09-06T20:13:00.888Z,14.83
2018-09-06T20:17:53.464Z,13.83
2018-09-06T20:22:46.022Z,13.37
2018-09-06T20:27:38.687Z,15.07
2018-09-06T20:32:31.201Z,12.67
2018-09-06T20:37:23.940Z,16.63
2018-09-06T20:42:16.617Z,15.63
2018-09-06T20:47:09.278Z,13.37
2018-09-06T20:52:01.919Z,13.67
2018-09-06T20:56:54.457Z,14.93
2018-09-06T21:01:47.010Z,12.07
2018-09-06T21:06:39.915Z,13.53
2018-09-06T21:11:32.463Z,13.43
2018-09-06T21:16:25.123Z,13.87
2018-09-06T21:21:17.864Z,10.17
2018-09-06T21:26:10.422Z,13.90
2018-09-06T21:31:02.976Z,10.77
2018-09-06T21:35:55.659Z,13.27
2018-09-06T21:40:48.271Z,12.03
2018-09-06T21:45:40.806Z,12.20
2018-09-06T21:50:33.420Z,15.13
2018-09-06T21:55:26.023Z,16.40
2018-09-06T22:00:18.646Z,12.77
2018-09-06T22:05:11.239Z,13.77
2018-09-06T22:10:03.991Z,17.97
2018-09-06T22:14:57.161Z,13.30
2018-09-06T22:19:49.727Z,14.53
2018-09-06T22:24:42.770Z,17.00
2018-09-06T22:29:35.321Z,13.97
2018-09-06T22:34:28.459Z,11.77
2018-09-06T22:39:21.022Z,13.30
2018-09-06T22:44:13.840Z,19.87
2018-09-06T22:49:06.467Z,14.37
2018-09-06T22:53:59.071Z,16.37
2018-09-06T22:58:51.817Z,14.87
2018-09-06T23:03:49.183Z,14.17
2018-09-06T23:08:41.811Z,13.50
2018-09-06T23:13:34.504Z,16.37
2018-09-06T23:18:27.083Z,13.77
2018-09-06T23:23:19.650Z,15.33
2018-09-06T23:28:12.267Z,14.47
2018-09-06T23:33:04.912Z,19.50
2018-09-06T23:37:57.519Z,15.53
2018-09-06T23:42:50.067Z,18.13
2018-09-06T23:47:42.703Z,16.47
2018-09-06T23:52:35.308Z,16.27
2018-09-06T23:57:27.920Z,15.73
